Terminal Aerodrome Forecast
Issued by NWS

Home | Current Version | Previous Version | Text Only | Print | Product List | Glossary On
Versions: 1 2 3 4 5 6 7 8 9 10 11 12 13 14 15 16 17 18 19 20 21 22 23 24 25 26 27 28
000
FTUS44 KOHX 301100 AAA
TAFCKV
TAF AMD
KCKV 301141Z 3012/0112 00000KT 3SM BR SCT003
      TEMPO 3012/3014 1/4SM FG BKN003
     FM301400 33006KT P6SM FEW050
     FM010000 VRB03KT P6SM SKC
     FM010600 00000KT 4SM BR SKC
     FM011000 00000KT 2SM BR SKC=

USA.gov is the U.S. government's official web portal to all federal, state and local government web resources and services.